EAL8280 KIWA-SVMI
Flight info
| Callsign | EAL8280 |
|---|---|
| Flight time | N/A |
| Altitude | 37000 |
| Route | KATMN6 PHASE DCT EWM J4 INK DCT CWK DCT VUH DCT KELPP A766 KEHLI UL674 NUDIS DCT GOSUL DCT MITOL DCT BIKOG/N0478F390 DCT BOSOM UL674 KINOP UM409 ERIKO UQ127 GILGA DCT CRO UW1 VUNUM DCT ISISU ALDAK1 |
| Aircraft | B772/H-SDE3FGHIJ1J3J7M3P2RWXYZ/SB2D1 |
Departure
| Time | 2026-04-27 15:47 |
|---|---|
| Airport | Mesa Gateway Airport (KIWA) |
Arrival
| Time | N/A |
|---|---|
| Airport | Maiquetía Simón Bolívar International Airport (SVMI) |
| Time | Latitude | Longitude | Altitude | Speed | Heading |
|---|---|---|---|---|---|
| 2026-04-27 15:10 | 33.30581 | -111.66661 | 1369 ft | 0 kts | 270° |
| 2026-04-27 15:37 | 33.30581 | -111.66672 | 1369 ft | 3 kts | 270° |
| 2026-04-27 15:37 | 33.30582 | -111.66709 | 1369 ft | 5 kts | 270° |
| 2026-04-27 15:37 | 33.30602 | -111.66742 | 1368 ft | 5 kts | 346° |
| 2026-04-27 15:37 | 33.30644 | -111.66747 | 1368 ft | 6 kts | 356° |
| 2026-04-27 15:38 | 33.30690 | -111.66748 | 1368 ft | 6 kts | 358° |
| 2026-04-27 15:38 | 33.30742 | -111.66748 | 1368 ft | 8 kts | 0° |
| 2026-04-27 15:38 | 33.30799 | -111.66747 | 1368 ft | 8 kts | 0° |
| 2026-04-27 15:38 | 33.30861 | -111.66747 | 1368 ft | 9 kts | 0° |
| 2026-04-27 15:39 | 33.30927 | -111.66746 | 1368 ft | 9 kts | 0° |
| 2026-04-27 15:39 | 33.30996 | -111.66746 | 1367 ft | 10 kts | 0° |
| 2026-04-27 15:39 | 33.31068 | -111.66743 | 1367 ft | 10 kts | 4° |
| 2026-04-27 15:39 | 33.31138 | -111.66763 | 1367 ft | 10 kts | 325° |
| 2026-04-27 15:40 | 33.31198 | -111.66826 | 1366 ft | 12 kts | 314° |
| 2026-04-27 15:40 | 33.31259 | -111.66900 | 1365 ft | 12 kts | 314° |
| 2026-04-27 15:40 | 33.31324 | -111.66978 | 1363 ft | 13 kts | 314° |
| 2026-04-27 15:40 | 33.31393 | -111.67060 | 1362 ft | 14 kts | 315° |
| 2026-04-27 15:41 | 33.31465 | -111.67142 | 1361 ft | 14 kts | 316° |
| 2026-04-27 15:41 | 33.31536 | -111.67224 | 1360 ft | 13 kts | 315° |
| 2026-04-27 15:41 | 33.31607 | -111.67306 | 1359 ft | 14 kts | 315° |
| 2026-04-27 15:41 | 33.31650 | -111.67355 | 1358 ft | 4 kts | 326° |
| 2026-04-27 15:42 | 33.31677 | -111.67358 | 1358 ft | 4 kts | 20° |
| 2026-04-27 15:42 | 33.31715 | -111.67318 | 1359 ft | 9 kts | 63° |
| 2026-04-27 15:42 | 33.31726 | -111.67243 | 1359 ft | 8 kts | 86° |
| 2026-04-27 15:42 | 33.31728 | -111.67172 | 1360 ft | 8 kts | 89° |
| 2026-04-27 15:43 | 33.31728 | -111.67105 | 1361 ft | 7 kts | 89° |
| 2026-04-27 15:43 | 33.31728 | -111.67044 | 1361 ft | 7 kts | 89° |
| 2026-04-27 15:43 | 33.31728 | -111.66988 | 1362 ft | 6 kts | 89° |
| 2026-04-27 15:43 | 33.31728 | -111.66929 | 1363 ft | 8 kts | 91° |
| 2026-04-27 15:44 | 33.31726 | -111.66856 | 1364 ft | 8 kts | 91° |
| 2026-04-27 15:44 | 33.31724 | -111.66791 | 1365 ft | 7 kts | 91° |
| 2026-04-27 15:44 | 33.31724 | -111.66743 | 1365 ft | 0 kts | 91° |
| 2026-04-27 15:45 | 33.31724 | -111.66742 | 1365 ft | 0 kts | 91° |
| 2026-04-27 15:46 | 33.31723 | -111.66715 | 1366 ft | 7 kts | 91° |
| 2026-04-27 15:46 | 33.31722 | -111.66632 | 1367 ft | 10 kts | 91° |
| 2026-04-27 15:46 | 33.31707 | -111.66546 | 1368 ft | 13 kts | 117° |
| 2026-04-27 15:46 | 33.31547 | -111.66344 | 1370 ft | 64 kts | 134° |
| 2026-04-27 15:47 | 33.31072 | -111.65793 | 1377 ft | 124 kts | 135° |
| 2026-04-27 15:47 | 33.30338 | -111.64932 | 1393 ft | 172 kts | 135° |
| 2026-04-27 15:47 | 33.29469 | -111.63905 | 1883 ft | 173 kts | 134° |
| 2026-04-27 15:47 | 33.28622 | -111.62840 | 2391 ft | 183 kts | 132° |
| 2026-04-27 15:48 | 33.27738 | -111.61708 | 2716 ft | 192 kts | 132° |
| 2026-04-27 15:48 | 33.26818 | -111.60524 | 2974 ft | 200 kts | 132° |
| 2026-04-27 15:48 | 33.25828 | -111.59252 | 3193 ft | 217 kts | 132° |
| 2026-04-27 15:49 | 33.23656 | -111.56435 | 3924 ft | 240 kts | 132° |
| 2026-04-27 15:49 | 33.22526 | -111.54908 | 4330 ft | 252 kts | 132° |
| 2026-04-27 15:49 | 33.21347 | -111.53276 | 4692 ft | 266 kts | 129° |
| 2026-04-27 15:49 | 33.20201 | -111.51550 | 5298 ft | 269 kts | 128° |
| 2026-04-27 15:50 | 33.19049 | -111.49804 | 5924 ft | 271 kts | 129° |
| 2026-04-27 15:50 | 33.17883 | -111.48035 | 6517 ft | 273 kts | 129° |
| 2026-04-27 15:50 | 33.16690 | -111.46230 | 7050 ft | 278 kts | 129° |
| 2026-04-27 15:50 | 33.15494 | -111.44417 | 7601 ft | 281 kts | 130° |
| 2026-04-27 15:51 | 33.14288 | -111.42592 | 8129 ft | 284 kts | 130° |
| 2026-04-27 15:51 | 33.13061 | -111.40735 | 8653 ft | 287 kts | 130° |
| 2026-04-27 15:51 | 33.11817 | -111.38854 | 9162 ft | 290 kts | 131° |
| 2026-04-27 15:51 | 33.10569 | -111.36968 | 9630 ft | 292 kts | 131° |
| 2026-04-27 15:52 | 33.09300 | -111.35051 | 10078 ft | 296 kts | 131° |
| 2026-04-27 15:52 | 33.07987 | -111.33073 | 10255 ft | 311 kts | 132° |
| 2026-04-27 15:52 | 33.06620 | -111.31016 | 10369 ft | 328 kts | 132° |
| 2026-04-27 15:52 | 33.05171 | -111.28838 | 10520 ft | 344 kts | 132° |
| 2026-04-27 15:53 | 33.03648 | -111.26547 | 10681 ft | 360 kts | 131° |
| 2026-04-27 15:53 | 33.02065 | -111.24165 | 10887 ft | 375 kts | 131° |
| 2026-04-27 15:53 | 33.00421 | -111.21693 | 11237 ft | 385 kts | 132° |
| 2026-04-27 15:53 | 32.98753 | -111.19183 | 11752 ft | 390 kts | 132° |
| 2026-04-27 15:54 | 32.97044 | -111.16613 | 12289 ft | 395 kts | 132° |
| 2026-04-27 15:54 | 32.95317 | -111.14019 | 12833 ft | 400 kts | 133° |
| 2026-04-27 15:54 | 32.93598 | -111.11437 | 13394 ft | 404 kts | 133° |
| 2026-04-27 15:54 | 32.91839 | -111.08799 | 13920 ft | 410 kts | 133° |
| 2026-04-27 15:55 | 32.90043 | -111.06106 | 14520 ft | 415 kts | 133° |
| 2026-04-27 15:55 | 32.88250 | -111.03418 | 15149 ft | 418 kts | 134° |
| 2026-04-27 15:55 | 32.86431 | -111.00694 | 15723 ft | 423 kts | 134° |
| 2026-04-27 15:55 | 32.84591 | -110.97941 | 16313 ft | 428 kts | 134° |
| 2026-04-27 15:56 | 32.82726 | -110.95154 | 16886 ft | 432 kts | 134° |
| 2026-04-27 15:56 | 32.80870 | -110.92380 | 17520 ft | 435 kts | 135° |
| 2026-04-27 15:56 | 32.78977 | -110.89552 | 18132 ft | 438 kts | 135° |
| 2026-04-27 15:56 | 32.77064 | -110.86698 | 18687 ft | 443 kts | 135° |
| 2026-04-27 15:57 | 32.75151 | -110.83847 | 19225 ft | 448 kts | 135° |
| 2026-04-27 15:57 | 32.73202 | -110.80942 | 19779 ft | 452 kts | 135° |
| 2026-04-27 15:57 | 32.71229 | -110.78005 | 20288 ft | 457 kts | 135° |
| 2026-04-27 15:57 | 32.69241 | -110.75043 | 20830 ft | 461 kts | 135° |
| 2026-04-27 15:58 | 32.67234 | -110.72058 | 21348 ft | 466 kts | 135° |
| 2026-04-27 15:58 | 32.65369 | -110.68880 | 21830 ft | 478 kts | 126° |
| 2026-04-27 15:58 | 32.63909 | -110.65314 | 22339 ft | 490 kts | 116° |
| 2026-04-27 15:58 | 32.62867 | -110.61380 | 22772 ft | 501 kts | 109° |
| 2026-04-27 15:59 | 32.62009 | -110.57388 | 23217 ft | 506 kts | 109° |
| 2026-04-27 15:59 | 32.61142 | -110.53317 | 23749 ft | 509 kts | 109° |
| 2026-04-27 15:59 | 32.60268 | -110.49259 | 24261 ft | 513 kts | 109° |
| 2026-04-27 15:59 | 32.59383 | -110.45188 | 24743 ft | 516 kts | 109° |
| 2026-04-27 16:00 | 32.58478 | -110.41048 | 25265 ft | 519 kts | 109° |
| 2026-04-27 16:00 | 32.57573 | -110.36932 | 25751 ft | 522 kts | 109° |
| 2026-04-27 16:00 | 32.56643 | -110.32727 | 26135 ft | 527 kts | 110° |
| 2026-04-27 16:00 | 32.55716 | -110.28549 | 26456 ft | 532 kts | 110° |
| 2026-04-27 16:01 | 32.54769 | -110.24290 | 26922 ft | 534 kts | 110° |
| 2026-04-27 16:01 | 32.53824 | -110.20052 | 27382 ft | 536 kts | 110° |
| 2026-04-27 16:01 | 32.52875 | -110.15812 | 27713 ft | 540 kts | 110° |
| 2026-04-27 16:01 | 32.51903 | -110.11473 | 28064 ft | 544 kts | 110° |
| 2026-04-27 16:02 | 32.50922 | -110.07105 | 28437 ft | 546 kts | 110° |
| 2026-04-27 16:02 | 32.49948 | -110.02781 | 28860 ft | 548 kts | 110° |
| 2026-04-27 16:02 | 32.48966 | -109.98425 | 29247 ft | 550 kts | 110° |
| 2026-04-27 16:02 | 32.47981 | -109.94061 | 29717 ft | 550 kts | 110° |
| 2026-04-27 16:03 | 32.46994 | -109.89699 | 30222 ft | 549 kts | 110° |
| 2026-04-27 16:03 | 32.45995 | -109.85289 | 30647 ft | 549 kts | 110° |
| 2026-04-27 16:03 | 32.45000 | -109.80912 | 31003 ft | 551 kts | 110° |
| 2026-04-27 16:03 | 32.44025 | -109.76590 | 31366 ft | 553 kts | 109° |
| 2026-04-27 16:04 | 32.43306 | -109.72073 | 31713 ft | 558 kts | 103° |
| 2026-04-27 16:04 | 32.42736 | -109.67584 | 32080 ft | 559 kts | 103° |
| 2026-04-27 16:04 | 32.42169 | -109.63030 | 32472 ft | 559 kts | 103° |
| 2026-04-27 16:04 | 32.41608 | -109.58546 | 32845 ft | 560 kts | 103° |
| 2026-04-27 16:05 | 32.41027 | -109.53932 | 33193 ft | 560 kts | 103° |
| 2026-04-27 16:05 | 32.40443 | -109.49317 | 33495 ft | 562 kts | 103° |
| 2026-04-27 16:05 | 32.39867 | -109.44793 | 33833 ft | 563 kts | 103° |
| 2026-04-27 16:05 | 32.39285 | -109.40232 | 34158 ft | 563 kts | 104° |
| 2026-04-27 16:06 | 32.38696 | -109.35635 | 34552 ft | 562 kts | 104° |
| 2026-04-27 16:06 | 32.38100 | -109.30992 | 34884 ft | 562 kts | 104° |
| 2026-04-27 16:06 | 32.37506 | -109.26401 | 35015 ft | 565 kts | 104° |
| 2026-04-27 16:06 | 32.36914 | -109.21835 | 35206 ft | 567 kts | 104° |
| 2026-04-27 16:07 | 32.36315 | -109.17222 | 35545 ft | 566 kts | 104° |
| 2026-04-27 16:07 | 32.35718 | -109.12631 | 35899 ft | 564 kts | 104° |
| 2026-04-27 16:07 | 32.35122 | -109.08057 | 36172 ft | 563 kts | 104° |
| 2026-04-27 16:07 | 32.34523 | -109.03474 | 36349 ft | 565 kts | 104° |
| 2026-04-27 16:08 | 32.33924 | -108.98914 | 36492 ft | 567 kts | 104° |
| 2026-04-27 16:08 | 32.33313 | -108.94261 | 36731 ft | 566 kts | 104° |
| 2026-04-27 16:08 | 32.32711 | -108.89692 | 37030 ft | 564 kts | 105° |
| 2026-04-27 16:09 | 32.31499 | -108.80550 | 37105 ft | 568 kts | 104° |
| 2026-04-27 16:09 | 32.29665 | -108.66794 | 37100 ft | 563 kts | 105° |
| 2026-04-27 16:10 | 32.27193 | -108.48460 | 37116 ft | 565 kts | 104° |
| 2026-04-27 16:11 | 32.25329 | -108.34763 | 37132 ft | 566 kts | 105° |
| 2026-04-27 16:12 | 32.23444 | -108.21026 | 37113 ft | 565 kts | 105° |
| 2026-04-27 16:13 | 32.21547 | -108.07321 | 37118 ft | 566 kts | 105° |
| 2026-04-27 16:13 | 32.19639 | -107.93640 | 37118 ft | 565 kts | 105° |
| 2026-04-27 16:14 | 32.17071 | -107.75410 | 37106 ft | 566 kts | 105° |
| 2026-04-27 16:15 | 32.14484 | -107.57235 | 37112 ft | 563 kts | 105° |
| 2026-04-27 16:16 | 32.11863 | -107.39016 | 37121 ft | 563 kts | 105° |
| 2026-04-27 16:17 | 32.09224 | -107.20865 | 37103 ft | 564 kts | 105° |
| 2026-04-27 16:18 | 32.06565 | -107.02759 | 37109 ft | 562 kts | 105° |
| 2026-04-27 16:19 | 32.05226 | -106.93716 | 37111 ft | 562 kts | 105° |
| 2026-04-27 16:20 | 32.02529 | -106.75638 | 37104 ft | 562 kts | 105° |
| 2026-04-27 16:21 | 32.00496 | -106.62118 | 37109 ft | 562 kts | 105° |
| 2026-04-27 16:22 | 31.97747 | -106.44011 | 37100 ft | 562 kts | 106° |
| 2026-04-27 16:22 | 31.95679 | -106.30502 | 37076 ft | 561 kts | 106° |
| 2026-04-27 16:23 | 31.94954 | -106.16723 | 37089 ft | 567 kts | 95° |
| 2026-04-27 16:24 | 31.94831 | -106.07477 | 37110 ft | 567 kts | 95° |
| 2026-04-27 16:25 | 31.94536 | -105.88952 | 37125 ft | 567 kts | 95° |
| 2026-04-27 16:26 | 31.94197 | -105.70367 | 37127 ft | 567 kts | 95° |
| 2026-04-27 16:27 | 31.93826 | -105.51788 | 37126 ft | 568 kts | 95° |
| 2026-04-27 16:28 | 31.93323 | -105.28406 | 37094 ft | 567 kts | 95° |
| 2026-04-27 16:29 | 31.92823 | -105.05081 | 37076 ft | 566 kts | 95° |
| 2026-04-27 16:30 | 31.92392 | -104.86521 | 37087 ft | 567 kts | 95° |
| 2026-04-27 16:31 | 31.91815 | -104.63276 | 37113 ft | 568 kts | 95° |
| 2026-04-27 16:32 | 31.91449 | -104.49355 | 37087 ft | 564 kts | 95° |
| 2026-04-27 16:33 | 31.91066 | -104.35417 | 37072 ft | 567 kts | 95° |
| 2026-04-27 16:33 | 31.90805 | -104.26163 | 37041 ft | 562 kts | 95° |
| 2026-04-27 16:34 | 31.90536 | -104.16943 | 37033 ft | 565 kts | 95° |
| 2026-04-27 16:34 | 31.90274 | -104.08145 | 37030 ft | 567 kts | 95° |
| 2026-04-27 16:35 | 31.90013 | -103.99554 | 37013 ft | 565 kts | 96° |
| 2026-04-27 16:36 | 31.89576 | -103.85628 | 37022 ft | 565 kts | 95° |
| 2026-04-27 16:36 | 31.89280 | -103.76447 | 37026 ft | 565 kts | 95° |
| 2026-04-27 16:37 | 31.88976 | -103.67217 | 37033 ft | 564 kts | 95° |
| 2026-04-27 16:37 | 31.88664 | -103.57972 | 37028 ft | 565 kts | 95° |
| 2026-04-27 16:38 | 31.88350 | -103.48827 | 37028 ft | 564 kts | 95° |
| 2026-04-27 16:38 | 31.88025 | -103.39585 | 37036 ft | 566 kts | 95° |
| 2026-04-27 16:39 | 31.87694 | -103.30361 | 37011 ft | 564 kts | 96° |
| 2026-04-27 16:39 | 31.86673 | -103.21362 | 37014 ft | 555 kts | 109° |
| 2026-04-27 16:40 | 31.84656 | -103.12582 | 37018 ft | 556 kts | 111° |
| 2026-04-27 16:40 | 31.82604 | -103.03873 | 37034 ft | 556 kts | 111° |
| 2026-04-27 16:41 | 31.80539 | -102.95164 | 37031 ft | 554 kts | 111° |
| 2026-04-27 16:41 | 31.78450 | -102.86398 | 37038 ft | 558 kts | 111° |
| 2026-04-27 16:42 | 31.76360 | -102.77663 | 37036 ft | 556 kts | 111° |
| 2026-04-27 16:42 | 31.74278 | -102.68997 | 37034 ft | 557 kts | 111° |
| 2026-04-27 16:43 | 31.72164 | -102.60228 | 37033 ft | 556 kts | 110° |
| 2026-04-27 16:43 | 31.70051 | -102.51496 | 37034 ft | 558 kts | 110° |
| 2026-04-27 16:44 | 31.67944 | -102.42813 | 37035 ft | 558 kts | 110° |
| 2026-04-27 16:44 | 31.65811 | -102.34058 | 37027 ft | 558 kts | 111° |
| 2026-04-27 16:45 | 31.63672 | -102.25299 | 37008 ft | 557 kts | 111° |
| 2026-04-27 16:45 | 31.61527 | -102.16554 | 37011 ft | 560 kts | 111° |
| 2026-04-27 16:46 | 31.59386 | -102.07845 | 37007 ft | 559 kts | 111° |
| 2026-04-27 16:46 | 31.57225 | -101.99089 | 37006 ft | 560 kts | 110° |
| 2026-04-27 16:47 | 31.55064 | -101.90359 | 37009 ft | 560 kts | 111° |
| 2026-04-27 16:47 | 31.52898 | -101.81634 | 37008 ft | 558 kts | 110° |
| 2026-04-27 16:48 | 31.50728 | -101.72925 | 37014 ft | 558 kts | 110° |
| 2026-04-27 16:48 | 31.48549 | -101.64204 | 37019 ft | 559 kts | 110° |
| 2026-04-27 16:49 | 31.45278 | -101.51168 | 37018 ft | 557 kts | 110° |
| 2026-04-27 16:49 | 31.43101 | -101.42523 | 37018 ft | 557 kts | 110° |
| 2026-04-27 16:50 | 31.40899 | -101.33808 | 37010 ft | 556 kts | 111° |
| 2026-04-27 16:50 | 31.38700 | -101.25133 | 36995 ft | 555 kts | 111° |
| 2026-04-27 16:51 | 31.36516 | -101.16544 | 36993 ft | 555 kts | 111° |
| 2026-04-27 16:51 | 31.34304 | -101.07873 | 37000 ft | 556 kts | 111° |
| 2026-04-27 16:52 | 31.32105 | -100.99274 | 37003 ft | 555 kts | 111° |
| 2026-04-27 16:52 | 31.29899 | -100.90681 | 37004 ft | 553 kts | 111° |
| 2026-04-27 16:53 | 31.27683 | -100.82075 | 37002 ft | 555 kts | 111° |
| 2026-04-27 16:53 | 31.25458 | -100.73453 | 36996 ft | 553 kts | 111° |
| 2026-04-27 16:54 | 31.23233 | -100.64864 | 36984 ft | 554 kts | 110° |
| 2026-04-27 16:54 | 31.21007 | -100.56294 | 36977 ft | 554 kts | 110° |
| 2026-04-27 16:55 | 31.18763 | -100.47682 | 36975 ft | 553 kts | 110° |
| 2026-04-27 16:55 | 31.16534 | -100.39153 | 36980 ft | 552 kts | 110° |
| 2026-04-27 16:56 | 31.14287 | -100.30585 | 36965 ft | 554 kts | 111° |
| 2026-04-27 16:56 | 31.12045 | -100.22057 | 36964 ft | 553 kts | 111° |
| 2026-04-27 16:57 | 31.09777 | -100.13455 | 36969 ft | 554 kts | 111° |
| 2026-04-27 16:57 | 31.07519 | -100.04917 | 36967 ft | 552 kts | 111° |
| 2026-04-27 16:58 | 31.05263 | -99.96413 | 36964 ft | 552 kts | 111° |
| 2026-04-27 16:58 | 31.03000 | -99.87910 | 36971 ft | 553 kts | 111° |
| 2026-04-27 16:59 | 31.00713 | -99.79339 | 36973 ft | 553 kts | 111° |
| 2026-04-27 16:59 | 30.98443 | -99.70858 | 36967 ft | 553 kts | 111° |
| 2026-04-27 17:00 | 30.95011 | -99.58079 | 36973 ft | 552 kts | 111° |
| 2026-04-27 17:01 | 30.92713 | -99.49556 | 36969 ft | 552 kts | 110° |
| 2026-04-27 17:01 | 30.90420 | -99.41074 | 36963 ft | 552 kts | 110° |
| 2026-04-27 17:02 | 30.88104 | -99.32535 | 36946 ft | 551 kts | 111° |
| 2026-04-27 17:02 | 30.85784 | -99.24002 | 36938 ft | 550 kts | 111° |
| 2026-04-27 17:03 | 30.83480 | -99.15555 | 36932 ft | 551 kts | 111° |
| 2026-04-27 17:03 | 30.81170 | -99.07107 | 36925 ft | 550 kts | 111° |
| 2026-04-27 17:04 | 30.78853 | -98.98662 | 36916 ft | 551 kts | 111° |
| 2026-04-27 17:04 | 30.76508 | -98.90138 | 36913 ft | 552 kts | 111° |
| 2026-04-27 17:05 | 30.74174 | -98.81676 | 36920 ft | 550 kts | 110° |
| 2026-04-27 17:05 | 30.71852 | -98.73283 | 36926 ft | 550 kts | 110° |
| 2026-04-27 17:06 | 30.69503 | -98.64813 | 36931 ft | 550 kts | 111° |
| 2026-04-27 17:06 | 30.67163 | -98.56405 | 36929 ft | 550 kts | 110° |
| 2026-04-27 17:07 | 30.64800 | -98.47933 | 36934 ft | 550 kts | 110° |
| 2026-04-27 17:07 | 30.62419 | -98.39423 | 36932 ft | 551 kts | 110° |
| 2026-04-27 17:08 | 30.60057 | -98.31004 | 36914 ft | 550 kts | 111° |
| 2026-04-27 17:08 | 30.57682 | -98.22563 | 36917 ft | 547 kts | 111° |
| 2026-04-27 17:09 | 30.55296 | -98.14106 | 36921 ft | 550 kts | 111° |
| 2026-04-27 17:09 | 30.52924 | -98.05719 | 36923 ft | 548 kts | 111° |
| 2026-04-27 17:10 | 30.50535 | -97.97301 | 36926 ft | 549 kts | 110° |
| 2026-04-27 17:10 | 30.48149 | -97.88911 | 36926 ft | 548 kts | 110° |
| 2026-04-27 17:11 | 30.45745 | -97.80484 | 36925 ft | 548 kts | 111° |
| 2026-04-27 17:11 | 30.42162 | -97.67966 | 36916 ft | 548 kts | 110° |
| 2026-04-27 17:12 | 30.38547 | -97.55400 | 36910 ft | 549 kts | 112° |
| 2026-04-27 17:13 | 30.35555 | -97.47395 | 36910 ft | 545 kts | 117° |
| 2026-04-27 17:13 | 30.32370 | -97.39438 | 36913 ft | 545 kts | 118° |
| 2026-04-27 17:14 | 30.29163 | -97.31468 | 36890 ft | 544 kts | 118° |
| 2026-04-27 17:14 | 30.25958 | -97.23534 | 36888 ft | 544 kts | 118° |
| 2026-04-27 17:15 | 30.22750 | -97.15619 | 36892 ft | 546 kts | 118° |
| 2026-04-27 17:15 | 30.19519 | -97.07665 | 36900 ft | 545 kts | 118° |
| 2026-04-27 17:16 | 30.16293 | -96.99744 | 36913 ft | 545 kts | 118° |
| 2026-04-27 17:16 | 30.13082 | -96.91879 | 36922 ft | 545 kts | 118° |
| 2026-04-27 17:17 | 30.09829 | -96.83926 | 36919 ft | 545 kts | 118° |
| 2026-04-27 17:17 | 30.06604 | -96.76062 | 36913 ft | 544 kts | 118° |
| 2026-04-27 17:18 | 30.01730 | -96.64207 | 36913 ft | 544 kts | 118° |
| 2026-04-27 17:18 | 29.98463 | -96.56282 | 36916 ft | 544 kts | 117° |
| 2026-04-27 17:19 | 29.95206 | -96.48395 | 36915 ft | 543 kts | 117° |
| 2026-04-27 17:19 | 29.91961 | -96.40557 | 36919 ft | 544 kts | 117° |
| 2026-04-27 17:20 | 29.88697 | -96.32689 | 36904 ft | 542 kts | 118° |
| 2026-04-27 17:20 | 29.85414 | -96.24789 | 36899 ft | 542 kts | 118° |
| 2026-04-27 17:21 | 29.82166 | -96.16991 | 36902 ft | 541 kts | 118° |
| 2026-04-27 17:21 | 29.78895 | -96.09157 | 36905 ft | 543 kts | 118° |
| 2026-04-27 17:22 | 29.75624 | -96.01336 | 36909 ft | 543 kts | 118° |
| 2026-04-27 17:22 | 29.72358 | -95.93543 | 36915 ft | 543 kts | 118° |
| 2026-04-27 17:23 | 29.69086 | -95.85751 | 36912 ft | 542 kts | 118° |
| 2026-04-27 17:23 | 29.65802 | -95.77948 | 36909 ft | 542 kts | 118° |
| 2026-04-27 17:24 | 29.62515 | -95.70154 | 36913 ft | 542 kts | 117° |
| 2026-04-27 17:24 | 29.59237 | -95.62395 | 36920 ft | 541 kts | 118° |
| 2026-04-27 17:25 | 29.55938 | -95.54605 | 36927 ft | 540 kts | 117° |
| 2026-04-27 17:25 | 29.52652 | -95.46860 | 36930 ft | 542 kts | 117° |
| 2026-04-27 17:26 | 29.49364 | -95.39125 | 36938 ft | 540 kts | 117° |
| 2026-04-27 17:26 | 29.46067 | -95.31387 | 36925 ft | 540 kts | 118° |
| 2026-04-27 17:27 | 29.42778 | -95.23682 | 36931 ft | 539 kts | 117° |
| 2026-04-27 17:27 | 29.39495 | -95.16003 | 36938 ft | 539 kts | 118° |
| 2026-04-27 17:28 | 29.36193 | -95.08299 | 36943 ft | 539 kts | 118° |
| 2026-04-27 17:29 | 29.31230 | -94.96746 | 36947 ft | 539 kts | 117° |
| 2026-04-27 17:29 | 29.27886 | -94.89043 | 36934 ft | 537 kts | 121° |
| 2026-04-27 17:30 | 29.23645 | -94.82110 | 36947 ft | 534 kts | 131° |
| 2026-04-27 17:30 | 29.16754 | -94.72134 | 36949 ft | 533 kts | 131° |
| 2026-04-27 17:31 | 29.12125 | -94.65469 | 36950 ft | 533 kts | 131° |
| 2026-04-27 17:31 | 29.07514 | -94.58845 | 36946 ft | 533 kts | 131° |
| 2026-04-27 17:32 | 29.00614 | -94.48959 | 36946 ft | 534 kts | 131° |
| 2026-04-27 17:33 | 28.95970 | -94.42320 | 36947 ft | 534 kts | 131° |
| 2026-04-27 17:33 | 28.91357 | -94.35737 | 36948 ft | 533 kts | 131° |
| 2026-04-27 17:34 | 28.86709 | -94.29115 | 36931 ft | 533 kts | 131° |
| 2026-04-27 17:34 | 28.82073 | -94.22520 | 36936 ft | 534 kts | 131° |
| 2026-04-27 17:35 | 28.77449 | -94.15953 | 36936 ft | 533 kts | 131° |
| 2026-04-27 17:35 | 28.72825 | -94.09395 | 36941 ft | 533 kts | 131° |
| 2026-04-27 17:36 | 28.68164 | -94.02798 | 36943 ft | 532 kts | 131° |
| 2026-04-27 17:36 | 28.63533 | -93.96252 | 36945 ft | 532 kts | 131° |
| 2026-04-27 17:37 | 28.58902 | -93.89715 | 36947 ft | 532 kts | 131° |
| 2026-04-27 17:37 | 28.54261 | -93.83176 | 36952 ft | 532 kts | 131° |
| 2026-04-27 17:38 | 28.49638 | -93.76671 | 36951 ft | 530 kts | 131° |
| 2026-04-27 17:38 | 28.44989 | -93.70141 | 36955 ft | 531 kts | 131° |
| 2026-04-27 17:39 | 28.40378 | -93.63674 | 36956 ft | 531 kts | 131° |
| 2026-04-27 17:39 | 28.35720 | -93.57150 | 36959 ft | 530 kts | 131° |
| 2026-04-27 17:40 | 28.31085 | -93.50670 | 36960 ft | 530 kts | 130° |
| 2026-04-27 17:40 | 28.26440 | -93.44185 | 36965 ft | 529 kts | 130° |
| 2026-04-27 17:41 | 28.21826 | -93.37754 | 36967 ft | 528 kts | 130° |
| 2026-04-27 17:41 | 28.17173 | -93.31278 | 36956 ft | 528 kts | 131° |
| 2026-04-27 17:42 | 28.12526 | -93.24820 | 36960 ft | 527 kts | 131° |
| 2026-04-27 17:42 | 28.07911 | -93.18415 | 36962 ft | 526 kts | 131° |
| 2026-04-27 17:43 | 28.03299 | -93.12025 | 36965 ft | 527 kts | 131° |
| 2026-04-27 17:43 | 27.98668 | -93.05619 | 36968 ft | 526 kts | 131° |
| 2026-04-27 17:44 | 27.94027 | -92.99207 | 36969 ft | 526 kts | 130° |
| 2026-04-27 17:44 | 27.89391 | -92.92812 | 36971 ft | 526 kts | 131° |
| 2026-04-27 17:45 | 27.84767 | -92.86445 | 36969 ft | 527 kts | 130° |
| 2026-04-27 17:45 | 27.80137 | -92.80077 | 36971 ft | 526 kts | 131° |
| 2026-04-27 17:46 | 27.75485 | -92.73689 | 36973 ft | 526 kts | 130° |
| 2026-04-27 17:46 | 27.70860 | -92.67348 | 36975 ft | 526 kts | 130° |
| 2026-04-27 17:47 | 27.66190 | -92.60953 | 36977 ft | 526 kts | 130° |
| 2026-04-27 17:47 | 27.61566 | -92.54632 | 36979 ft | 526 kts | 130° |
| 2026-04-27 17:48 | 27.56913 | -92.48280 | 36984 ft | 525 kts | 130° |
| 2026-04-27 17:48 | 27.52258 | -92.41934 | 36983 ft | 527 kts | 130° |
| 2026-04-27 17:49 | 27.47598 | -92.35592 | 36987 ft | 526 kts | 130° |
| 2026-04-27 17:49 | 27.42960 | -92.29288 | 36978 ft | 526 kts | 131° |
| 2026-04-27 17:50 | 27.38285 | -92.22943 | 36980 ft | 525 kts | 131° |
| 2026-04-27 17:50 | 27.31305 | -92.13488 | 36983 ft | 525 kts | 130° |
| 2026-04-27 17:51 | 27.26635 | -92.07173 | 36981 ft | 525 kts | 130° |
| 2026-04-27 17:51 | 27.21950 | -92.00847 | 36985 ft | 526 kts | 130° |
| 2026-04-27 17:52 | 27.17038 | -91.94807 | 36989 ft | 523 kts | 141° |
| 2026-04-27 17:52 | 27.11260 | -91.89908 | 36989 ft | 522 kts | 146° |
| 2026-04-27 17:53 | 27.05401 | -91.85160 | 36990 ft | 521 kts | 147° |
| 2026-04-27 17:53 | 26.99506 | -91.80402 | 36992 ft | 521 kts | 146° |
| 2026-04-27 17:54 | 26.93621 | -91.75668 | 36993 ft | 522 kts | 146° |
| 2026-04-27 17:54 | 26.87736 | -91.70940 | 36978 ft | 521 kts | 146° |
| 2026-04-27 17:55 | 26.81853 | -91.66225 | 36975 ft | 520 kts | 146° |
| 2026-04-27 17:55 | 26.75962 | -91.61509 | 36977 ft | 520 kts | 146° |
| 2026-04-27 17:56 | 26.70063 | -91.56794 | 36976 ft | 520 kts | 146° |
| 2026-04-27 17:56 | 26.64181 | -91.52099 | 36978 ft | 519 kts | 146° |
| 2026-04-27 17:57 | 26.58304 | -91.47414 | 36983 ft | 519 kts | 146° |
| 2026-04-27 17:57 | 26.52432 | -91.42739 | 36983 ft | 519 kts | 146° |
| 2026-04-27 17:58 | 26.46566 | -91.38075 | 36982 ft | 518 kts | 146° |
| 2026-04-27 17:58 | 26.40690 | -91.33410 | 36974 ft | 520 kts | 146° |
| 2026-04-27 17:59 | 26.34811 | -91.28748 | 36978 ft | 519 kts | 147° |
| 2026-04-27 17:59 | 26.28943 | -91.24100 | 36979 ft | 518 kts | 146° |
| 2026-04-27 18:00 | 26.23030 | -91.19423 | 36980 ft | 520 kts | 146° |
| 2026-04-27 18:00 | 26.17162 | -91.14787 | 36986 ft | 519 kts | 146° |
| 2026-04-27 18:01 | 26.11265 | -91.10134 | 36986 ft | 517 kts | 146° |
| 2026-04-27 18:01 | 26.05414 | -91.05524 | 36987 ft | 517 kts | 146° |
| 2026-04-27 18:02 | 25.99543 | -91.00903 | 36991 ft | 517 kts | 146° |
| 2026-04-27 18:02 | 25.93693 | -90.96304 | 36989 ft | 517 kts | 146° |
| 2026-04-27 18:03 | 25.87805 | -90.91682 | 36986 ft | 517 kts | 146° |
| 2026-04-27 18:03 | 25.81958 | -90.87097 | 36988 ft | 518 kts | 146° |
| 2026-04-27 18:04 | 25.76058 | -90.82477 | 36995 ft | 517 kts | 146° |
| 2026-04-27 18:04 | 25.70157 | -90.77861 | 36991 ft | 518 kts | 146° |
| 2026-04-27 18:05 | 25.64285 | -90.73274 | 36995 ft | 517 kts | 146° |
| 2026-04-27 18:05 | 25.58419 | -90.68697 | 36996 ft | 517 kts | 146° |
| 2026-04-27 18:06 | 25.52526 | -90.64105 | 36997 ft | 517 kts | 146° |
| 2026-04-27 18:06 | 25.46652 | -90.59532 | 36999 ft | 517 kts | 146° |
| 2026-04-27 18:07 | 25.40769 | -90.54959 | 37002 ft | 518 kts | 146° |
| 2026-04-27 18:07 | 25.34875 | -90.50383 | 37004 ft | 517 kts | 146° |
| 2026-04-27 18:08 | 25.29010 | -90.45834 | 37004 ft | 517 kts | 146° |
| 2026-04-27 18:08 | 25.23082 | -90.41243 | 37001 ft | 517 kts | 146° |
| 2026-04-27 18:09 | 25.17193 | -90.36687 | 36993 ft | 516 kts | 146° |
| 2026-04-27 18:09 | 25.11351 | -90.32173 | 36981 ft | 516 kts | 146° |
| 2026-04-27 18:10 | 25.05470 | -90.27634 | 36985 ft | 517 kts | 146° |
| 2026-04-27 18:10 | 24.99571 | -90.23087 | 36984 ft | 516 kts | 146° |
| 2026-04-27 18:11 | 24.93700 | -90.18567 | 36987 ft | 516 kts | 146° |
| 2026-04-27 18:11 | 24.87809 | -90.14037 | 36980 ft | 517 kts | 146° |
| 2026-04-27 18:12 | 24.81921 | -90.09514 | 36980 ft | 518 kts | 146° |
| 2026-04-27 18:12 | 24.76015 | -90.04983 | 36978 ft | 517 kts | 146° |
| 2026-04-27 18:13 | 24.70128 | -90.00472 | 36979 ft | 516 kts | 146° |
| 2026-04-27 18:13 | 24.64239 | -89.95964 | 36979 ft | 515 kts | 146° |
| 2026-04-27 18:14 | 24.58378 | -89.91482 | 36982 ft | 515 kts | 146° |
| 2026-04-27 18:14 | 24.52486 | -89.86954 | 36973 ft | 515 kts | 143° |
| 2026-04-27 18:15 | 24.47485 | -89.81392 | 36978 ft | 515 kts | 125° |
| 2026-04-27 18:15 | 24.43845 | -89.74640 | 36980 ft | 515 kts | 117° |
| 2026-04-27 18:16 | 24.40445 | -89.67775 | 36981 ft | 514 kts | 117° |
| 2026-04-27 18:16 | 24.37033 | -89.60923 | 36983 ft | 515 kts | 117° |
| 2026-04-27 18:17 | 24.33596 | -89.54051 | 36986 ft | 515 kts | 117° |
| 2026-04-27 18:17 | 24.30145 | -89.47170 | 36984 ft | 514 kts | 117° |
| 2026-04-27 18:18 | 24.26697 | -89.40308 | 36987 ft | 515 kts | 117° |
| 2026-04-27 18:18 | 24.23239 | -89.33442 | 36982 ft | 514 kts | 117° |
| 2026-04-27 18:19 | 24.19793 | -89.26609 | 36982 ft | 513 kts | 117° |
| 2026-04-27 18:19 | 24.16360 | -89.19814 | 36983 ft | 513 kts | 117° |
| 2026-04-27 18:20 | 24.12918 | -89.13011 | 36985 ft | 513 kts | 117° |
| 2026-04-27 18:20 | 24.09446 | -89.06156 | 36985 ft | 513 kts | 117° |
| 2026-04-27 18:21 | 24.06020 | -88.99367 | 36987 ft | 514 kts | 117° |
| 2026-04-27 18:21 | 24.02552 | -88.92498 | 36992 ft | 514 kts | 117° |
| 2026-04-27 18:22 | 23.99111 | -88.85695 | 36990 ft | 513 kts | 117° |
| 2026-04-27 18:22 | 23.95662 | -88.78886 | 36996 ft | 513 kts | 117° |
| 2026-04-27 18:23 | 23.92206 | -88.72074 | 36994 ft | 513 kts | 117° |
| 2026-04-27 18:23 | 23.88744 | -88.65260 | 36991 ft | 512 kts | 117° |
| 2026-04-27 18:24 | 23.85298 | -88.58486 | 36991 ft | 512 kts | 117° |
| 2026-04-27 18:24 | 23.81854 | -88.51725 | 36992 ft | 513 kts | 117° |
| 2026-04-27 18:25 | 23.78384 | -88.44924 | 36996 ft | 513 kts | 117° |
| 2026-04-27 18:25 | 23.74918 | -88.38138 | 36996 ft | 512 kts | 117° |
| 2026-04-27 18:26 | 23.71441 | -88.31343 | 36991 ft | 513 kts | 118° |
| 2026-04-27 18:26 | 23.67980 | -88.24586 | 36995 ft | 512 kts | 118° |
| 2026-04-27 18:27 | 23.64498 | -88.17799 | 36993 ft | 512 kts | 118° |
| 2026-04-27 18:27 | 23.61038 | -88.11064 | 36995 ft | 512 kts | 117° |
| 2026-04-27 18:28 | 23.57550 | -88.04282 | 36995 ft | 513 kts | 117° |
| 2026-04-27 18:28 | 23.54078 | -87.97543 | 36999 ft | 512 kts | 118° |
| 2026-04-27 18:29 | 23.50607 | -87.90815 | 36998 ft | 511 kts | 117° |
| 2026-04-27 18:29 | 23.46919 | -87.84165 | 36996 ft | 512 kts | 127° |
| 2026-04-27 18:30 | 23.41879 | -87.78751 | 36996 ft | 514 kts | 144° |
| 2026-04-27 18:30 | 23.35602 | -87.75061 | 37006 ft | 511 kts | 158° |
| 2026-04-27 18:31 | 23.29062 | -87.72112 | 37000 ft | 510 kts | 159° |